Tiempo atmosférico en la estación meteorológica de Girona, Girona (79 m.)



Fecha
DESCASC
Temp. máxima en grados centígrados (hora)
DESCASC
Temp. mínima en grados centígrados (hora)
DESCASC
Temp. media en grados centígrados
DESCASC
Racha de viento máxima en m/sg (hora)
DESCASC
Velocidad máxima media en intervalos de 10 minutos(hora)
DESCASC
Precipitaciones diarias en mm
DESCASC
Precipitaciones de 00:00 a 06:00 en mm
DESCASC
Precipitaciones de 06:00 a 12:00 en mm
DESCASC
Precipitaciones de 12:00 a 18:00 en mm
DESCASC
Precipitaciones de 18:00 a 24:00 en mm
DESCASC
26-03-2020 8 (18:10) 2.6 (23:50) 5.3 6.67 (15:50) 3.33 (13:10) 8.4 0 6.2 2.2 0
25-03-2020 15.1 (12:50) 5.9 (07:30) 10.5 7.22 (15:00) 3.61 (15:00) 0 0 0 0 0
24-03-2020 13.4 (11:50) 8.9 (23:50) 11.1 6.67 (15:30) 2.78 (13:40) 0 0 0 0 0
23-03-2020 14.7 (14:40) 11.1 (23:40) 12.9 6.39 (12:40) 3.06 (12:30) 26.6 18 6.8 1.6 0.2
22-03-2020 18.6 (15:20) 11 (05:50) 14.8 5 (11:30) 2.5 (11:00) 0.6 0 0 0 0.6
21-03-2020 18.2 (16:40) 4.5 (00:00) 11.4 5 (15:30) 1.94 (13:50) 0 0 0 0 0
20-03-2020 19.9 (16:00) 4.4 (00:00) 12.1 6.11 (17:20) 2.78 (16:40) 0 0 0 0 0
19-03-2020 20.5 (14:20) 5.1 (00:00) 12.8 7.22 (16:30) 3.33 (16:30) 0 0 0 0 0
18-03-2020 19.2 (14:10) 7.8 (00:00) 13.5 4.72 (17:30) 2.22 (17:20) 0 0 0 0 0
17-03-2020 15.3 (14:30) 10.5 (00:00) 12.9 4.72 (11:30) 2.5 (11:40) 0 0 0 0 0
16-03-2020 13.9 (11:00) 11.8 (00:00) 12.8 6.39 (17:30) 2.5 (20:20) 25.2 0 0.8 18.8 5.6
15-03-2020 19.2 (13:30) 9.7 (00:00) 14.5 11.11 (15:50) 5.28 (15:10) 0 0 0 0 0
14-03-2020 17.6 (12:40) 11.5 (00:00) 14.6 6.11 (15:20) 2.78 (15:40) 0 0 0 0 0
13-03-2020 20.3 (14:20) 9.2 (07:10) 14.7 5.28 (10:30) 2.78 (09:00) 0 0 0 0 0
12-03-2020 23.9 (13:40) 7 (00:00) 15.4 5.83 (13:50) 3.06 (14:00) 0 0 0 0 0
11-03-2020 23.5 (15:40) 6.3 (00:00) 14.9 5 (16:10) 2.22 (15:00) 0 0 0 0 0
10-03-2020 20 (15:30) 5.5 (00:00) 12.8 5 (11:40) 2.22 (11:30) 0 0 0 0 0
09-03-2020 17 (14:50) 7.7 (00:00) 12.3 6.94 (15:10) 3.61 (14:50) 0 0 0 0 0
08-03-2020 19.4 (14:30) 3 (00:00) 11.2 5.83 (15:00) 2.78 (15:00) 0 0 0 0 0
07-03-2020 17 (15:50) 2.2 (00:00) 9.6 7.78 (12:50) 3.61 (13:10) 0 0 0 0 0
06-03-2020 15.5 (13:50) 5.3 (00:00) 10.4 6.67 (14:30) 2.5 (14:30) 1.2 0 0 1.2 0
05-03-2020 23.4 (13:30) 7.7 (00:00) 15.5 9.17 (14:00) 4.17 (12:20) 0 0 0 0 0
04-03-2020 16.4 (14:50) 3.3 (00:00) 9.8 7.5 (12:10) 3.33 (13:40) 0 0 0 0 0
03-03-2020 16.4 (16:30) 3.6 (00:00) 10 8.61 (23:30) 3.89 (23:20) 0.4 0 0 0 0.4
02-03-2020 18.8 (11:20) 6.4 (00:00) 12.6 14.72 (08:00) 6.67 (08:30) 0.8 0 0 0.8 0
01-03-2020 21.2 (15:30) 10.5 (00:00) 15.9 11.94 (14:40) 4.44 (14:40) 0 0 0 0 0
29-02-2020 20.9 (16:40) 10.7 (00:00) 15.8 11.39 (10:50) 4.72 (16:40) 0 0 0 0 0
28-02-2020 17.9 (13:20) 6 (00:00) 11.9 9.17 (15:50) 5 (16:00) 0 0 0 0 0

Gráficas

Temp. máximas Temp. mínimas Temp. medias Precipitaciones Rachas de viento máximas Velocidades máximas media en intervalos de 10 minutos

Datos horarios

Fecha y hora oficial Temperatura (ºC) Velocidad del viento (km/h) Dirección del viento Racha (km/h) Dirección de racha Precipitación (mm) Presión (hPa) Tendencia (hPa) Humedad (%)
2020-03-28 23:00:00 9.9 2 Noroeste 3 Noroeste 0 -- -- 83
2020-03-28 22:00:00 11.6 3 Sur 4 Sudeste 0 -- -- 70
2020-03-28 21:00:00 12.6 3 Sudeste 6 Sur 0 -- -- 66
2020-03-28 20:00:00 13.5 4 Sur 14 Sur 0 -- -- 62
2020-03-28 19:00:00 14.6 5 Sur 16 Sudeste 0 -- -- 58
2020-03-28 18:00:00 15.5 7 Sur 15 Sudeste 0 -- -- 57
2020-03-28 17:00:00 16.5 6 Sur 17 Sudeste 0 -- -- 53
2020-03-28 16:00:00 18.4 7 Sur 24 Sur 0 -- -- 48
2020-03-28 15:00:00 19.4 8 Sur 14 Sudoeste 0 -- -- 39
2020-03-28 14:00:00 18.1 6 Norte 17 Norte 0 -- -- 40
2020-03-28 13:00:00 18.9 4 Sur 12 Norte 0 -- -- 37
2020-03-28 12:00:00 17.4 4 Este 12 Nordeste 0 -- -- 40
2020-03-28 11:00:00 15.5 4 Noroeste 12 Nordeste 0 -- -- 48
2020-03-28 10:00:00 12.4 3 Oeste 5 Noroeste 0 -- -- 66
2020-03-28 09:00:00 9.9 0 Calma 3 Noroeste 0 -- -- 79
2020-03-28 08:00:00 8.7 0 Calma 3 Oeste 0 -- -- 85
2020-03-28 07:00:00 8 0 Calma 2 Oeste 0 -- -- 92
2020-03-28 06:00:00 8 0 Calma 2 Noroeste 0 -- -- 91
2020-03-28 05:00:00 8.1 0 Calma 4 Oeste 0 -- -- 91
2020-03-28 04:00:00 8.3 2 Oeste 3 Oeste 0 -- -- 91
2020-03-28 03:00:00 8.5 0 Calma 4 Noroeste 0 -- -- 88
2020-03-28 02:00:00 8.6 0 Calma 3 Norte 0 -- -- 90
2020-03-28 01:00:00 8.6 0 Calma 5 Nordeste 0 -- -- 89
2020-03-28 00:00:00 8.4 0 Calma 5 Noroeste 0 -- -- 88
2020-03-27 23:00:00 9.3 2 Noroeste 5 Noroeste 0 -- -- 82
2020-03-27 22:00:00 9.6 0 Calma 6 Sudeste 0 -- -- 77
2020-03-27 21:00:00 9.9 0 Calma 6 Sudeste 0 -- -- 73
2020-03-27 20:00:00 10.6 2 Sudeste 9 Sudeste 0 -- -- 69
2020-03-27 19:00:00 11.4 3 Sudeste 12 Sudeste 0 -- -- 65
2020-03-27 18:00:00 12.5 5 Sudeste 12 Sudoeste 0 -- -- 58
2020-03-27 17:00:00 13.1 6 Sur 13 Sudeste 0 -- -- 49
2020-03-27 16:00:00 13.4 5 Nordeste 12 Este 0 -- -- 50
2020-03-27 15:00:00 14.1 2 Este 17 Este 0 -- -- 44
2020-03-27 14:00:00 13.8 0 Calma 11 Sudoeste 0 -- -- 45
2020-03-27 13:00:00 13.2 5 Sur 9 Sur 0 -- -- 55
2020-03-27 12:00:00 11.3 4 Sudoeste 11 Sudoeste 0 -- -- 56
2020-03-27 11:00:00 7.9 0 Calma 5 Sudoeste 0 -- -- 71
2020-03-27 10:00:00 6 0 Calma 4 Noroeste 0 -- -- 82
2020-03-27 09:00:00 4 0 Calma 4 Nordeste 0 -- -- 95
2020-03-27 08:00:00 2.2 2 Noroeste 5 Noroeste 0 -- -- 100
2020-03-27 07:00:00 1.7 0 Calma 4 Nordeste 0 -- -- 100
2020-03-27 06:00:00 1.6 0 Calma 3 Este 0 -- -- 100
2020-03-27 05:00:00 1.3 0 Calma 4 Este 0 -- -- 100
2020-03-27 04:00:00 1.5 0 Calma 5 Este 0 -- -- 100
2020-03-27 03:00:00 1.6 0 Calma 4 Nordeste 0 -- -- 100
2020-03-27 02:00:00 1.8 0 Calma 3 Nordeste 0 -- -- 100
2020-03-27 01:00:00 2.3 0 Calma 6 Oeste 0 -- -- 98
2020-03-27 00:00:00 2.6 2 Oeste 5 Oeste 0 -- -- 98
2020-03-26 23:00:00 3.1 2 Oeste 5 Oeste 0 -- -- 96
2020-03-26 22:00:00 3.9 0 Calma 5 Noroeste 0 -- -- 93
2020-03-26 21:00:00 5 2 Oeste 6 Noroeste 0 -- -- 90
2020-03-26 20:00:00 6.5 0 Calma 8 Norte 0 -- -- 88
2020-03-26 19:00:00 7.6 4 Noroeste 12 Noroeste 0 -- -- 83
2020-03-26 18:00:00 7.8 6 Norte 15 Norte 0 -- -- 78
2020-03-26 17:00:00 7.3 9 Norte 18 Norte 0 -- -- 82
2020-03-26 16:00:00 7 9 Norte 24 Noroeste 0 -- -- 87
2020-03-26 15:00:00 7.2 9 Norte 16 Noroeste 0 -- -- 87
2020-03-26 14:00:00 6 5 Norte 21 Norte 2 -- -- 96
2020-03-26 13:00:00 6.9 11 Norte 23 Norte 0.2 -- -- 91
2020-03-26 12:00:00 5.4 5 Noroeste 17 Noroeste 2 -- -- 95
2020-03-26 11:00:00 5.7 4 Noroeste 19 Noroeste 2.2 -- -- 94
2020-03-26 10:00:00 6.3 7 Norte 13 Noroeste 1 -- -- 95
2020-03-26 09:00:00 6.3 4 Norte 18 Noroeste 1 -- -- 92
2020-03-26 08:00:00 6.4 3 Noroeste 14 Nordeste 0 -- -- 86
2020-03-26 07:00:00 6 5 Norte 17 Norte 0 -- -- 89
2020-03-26 06:00:00 4.6 2 Oeste 6 Noroeste 0 -- -- 87
2020-03-26 05:00:00 4.5 0 Calma 7 Noroeste 0 -- -- 87
2020-03-26 04:00:00 4.5 2 Oeste 5 Oeste 0 -- -- 85
2020-03-26 03:00:00 5.1 2 Oeste 7 Sudeste 0 -- -- 80
2020-03-26 02:00:00 5.7 5 Sudeste 11 Sur 0 -- -- 78
2020-03-26 01:00:00 5.9 3 Sudeste 9 Sudeste 0 -- -- 78
2020-03-26 00:00:00 6.4 3 Este 7 Sudeste 0 -- -- 77
2020-03-25 23:00:00 6.7 3 Sur 12 Sur 0 -- -- 78
2020-03-25 22:00:00 7.3 4 Sudeste 13 Sur 0 -- -- 77
2020-03-25 21:00:00 7.8 5 Sudeste 14 Este 0 -- -- 74
2020-03-25 20:00:00 8.6 6 Sudeste 14 Sur 0 -- -- 68
2020-03-25 19:00:00 9.4 7 Sur 23 Sudoeste 0 -- -- 62
2020-03-25 18:00:00 10.6 6 Sur 22 Sudoeste 0 -- -- 55
2020-03-25 17:00:00 11.2 11 Sur 22 Sudeste 0 -- -- 52
2020-03-25 16:00:00 12.2 10 Sudeste 23 Sudeste 0 -- -- 50
2020-03-25 15:00:00 12 13 Sur 26 Sudeste 0 -- -- 50
2020-03-25 14:00:00 14.4 9 Sur 22 Sudoeste 0 -- -- 45
2020-03-25 13:00:00 14.7 9 Sudeste 26 Sudeste 0 -- -- 45
2020-03-25 12:00:00 14.4 8 Sur 19 Sudoeste 0 -- -- 34
2020-03-25 11:00:00 13.3 5 Sudoeste 13 Sur 0 -- -- 39
2020-03-25 10:00:00 10.3 3 Sudoeste 10 Sudoeste 0 -- -- 51
2020-03-25 09:00:00 8.7 3 Oeste 6 Oeste 0 -- -- 62
2020-03-25 08:00:00 6.2 0 Calma 5 Norte 0 -- -- 70
2020-03-25 07:00:00 6.1 2 Noroeste 6 Oeste 0 -- -- 71
2020-03-25 06:00:00 7.1 0 Calma 6 Oeste 0 -- -- 66
2020-03-25 05:00:00 7.6 0 Calma 8 Norte 0 -- -- 64
2020-03-25 04:00:00 8 2 Norte 12 Norte 0 -- -- 65
2020-03-25 03:00:00 8.3 3 Noroeste 12 Noroeste 0 -- -- 68
2020-03-25 02:00:00 8.5 3 Nordeste 8 Nordeste 0 -- -- 68
2020-03-25 01:00:00 8.6 4 Noroeste 11 Norte 0 -- -- 70
2020-03-25 00:00:00 8.9 3 Norte 12 Nordeste 0 -- -- 67
2020-03-24 23:00:00 9.1 4 Norte 11 Norte 0 -- -- 67
2020-03-24 22:00:00 9.3 4 Norte 11 Norte 0 -- -- 65
2020-03-24 21:00:00 9.4 4 Nordeste 11 Norte 0 -- -- 63
2020-03-24 20:00:00 9.7 4 Norte 13 Norte 0 -- -- 63
2020-03-24 19:00:00 10 5 Nordeste 18 Nordeste 0 -- -- 63
2020-03-24 18:00:00 10.5 8 Norte 22 Sudeste 0 -- -- 62
2020-03-24 17:00:00 11.1 6 Nordeste 19 Este 0 -- -- 62
2020-03-24 16:00:00 11.9 5 Este 24 Nordeste 0 -- -- 62
2020-03-24 15:00:00 13.1 8 Este 24 Norte 0 -- -- 60
2020-03-24 14:00:00 12.9 9 Nordeste 23 Norte 0 -- -- 61
2020-03-24 13:00:00 12.9 10 Norte 22 Nordeste 0 -- -- 56
2020-03-24 12:00:00 13.1 9 Nordeste 19 Nordeste 0 -- -- 59
2020-03-24 11:00:00 12.6 6 Nordeste 16 Nordeste 0 -- -- 64
2020-03-24 10:00:00 11.5 6 Norte 11 Norte 0 -- -- 68
2020-03-24 09:00:00 10.9 3 Norte 9 Norte 0 -- -- 78
2020-03-24 08:00:00 10.3 5 Norte 9 Noroeste 0 -- -- 85
2020-03-24 07:00:00 10.3 5 Norte 11 Norte 0 -- -- 86
2020-03-24 06:00:00 10.4 4 Norte 10 Norte 0 -- -- 81
2020-03-24 05:00:00 10.2 4 Norte 10 Norte 0 -- -- 86
2020-03-24 04:00:00 10.3 4 Norte 10 Nordeste 0 -- -- 88
2020-03-24 03:00:00 10.7 3 Norte 9 Norte 0 -- -- 88
2020-03-24 02:00:00 10.8 4 Norte 10 Norte 0 -- -- 88
2020-03-24 01:00:00 10.8 5 Norte 10 Norte 0 -- -- 87
2020-03-24 00:00:00 11.1 4 Norte 10 Norte 0 -- -- 88
2020-03-23 23:00:00 11.3 5 Norte 12 Norte 0 -- -- 87
2020-03-23 22:00:00 11.3 3 Norte 11 Noroeste 0 -- -- 89
2020-03-23 21:00:00 11.5 5 Norte 11 Norte 0 -- -- 88
2020-03-23 20:00:00 11.5 4 Norte 14 Norte 0.2 -- -- 89
2020-03-23 19:00:00 11.7 6 Norte 17 Norte 0 -- -- 89
2020-03-23 18:00:00 12.2 6 Norte 17 Norte 0 -- -- 86
2020-03-23 17:00:00 12.9 7 Norte 21 Noroeste 0 -- -- 84
2020-03-23 16:00:00 13.3 6 Norte 17 Norte 0.4 -- -- 89
2020-03-23 15:00:00 13.8 8 Norte 17 Nordeste 1.2 -- -- 86
2020-03-23 14:00:00 14 4 Nordeste 16 Norte 0 -- -- 84
2020-03-23 13:00:00 13.1 8 Norte 23 Norte 0 -- -- 89
2020-03-23 12:00:00 13.3 9 Norte 15 Noroeste 0 -- -- 89
2020-03-23 11:00:00 12.2 5 Norte 15 Norte 1.4 -- -- 100
2020-03-23 10:00:00 11.4 7 Norte 18 Noroeste 3.2 -- -- 100
2020-03-23 09:00:00 11.5 6 Norte 16 Norte 0.4 -- -- 100
2020-03-23 08:00:00 11.3 5 Noroeste 15 Noroeste 1 -- -- 100
2020-03-23 07:00:00 11.2 5 Norte 12 Norte 0.8 -- -- 100
2020-03-23 06:00:00 11.4 3 Norte 9 Norte 3.4 -- -- 100
2020-03-23 05:00:00 11.3 2 Oeste 4 Sudoeste 3.6 -- -- 100
2020-03-23 04:00:00 11.2 3 Norte 6 Nordeste 7.8 -- -- 100
2020-03-23 03:00:00 11.4 0 Calma 5 Noroeste 2 -- -- 100
2020-03-23 02:00:00 11.4 2 Noroeste 12 Noroeste 0 -- -- 99
2020-03-23 01:00:00 11.5 4 Noroeste 9 Norte 1.2 -- -- 97
2020-03-23 00:00:00 11.9 3 Oeste 6 Norte 0.6 -- -- 92
2020-03-22 23:00:00 12.3 5 Noroeste 9 Noroeste 0 -- -- 88
2020-03-22 22:00:00 12.2 3 Norte 8 Noroeste 0 -- -- 87
2020-03-22 21:00:00 12.4 2 Noroeste 8 Norte 0 -- -- 85
2020-03-22 20:00:00 13 3 Norte 5 Este 0 -- -- 80
2020-03-22 19:00:00 14.1 3 Sudeste 9 Este 0 -- -- 75
2020-03-22 18:00:00 15.1 3 Sudeste 10 Sudeste 0 -- -- 70
2020-03-22 17:00:00 16.1 6 Este 17 Este 0 -- -- 65
2020-03-22 16:00:00 17.2 5 Este 16 Nordeste 0 -- -- 59
2020-03-22 15:00:00 18 5 Nordeste 15 Este 0 -- -- 57
2020-03-22 14:00:00 17.1 7 Sudeste 15 Este 0 -- -- 59
2020-03-22 13:00:00 17.1 4 Sudeste 13 Este 0 -- -- 58
2020-03-22 12:00:00 17 5 Norte 18 Nordeste 0 -- -- 63
2020-03-22 11:00:00 15.4 9 Norte 17 Norte 0 -- -- 71
2020-03-22 10:00:00 14 6 Norte 13 Norte 0 -- -- 83
2020-03-22 09:00:00 11.9 4 Norte 12 Noroeste 0 -- -- 97
2020-03-22 08:00:00 11.4 5 Norte 11 Norte 0 -- -- 100
2020-03-22 07:00:00 11.1 3 Noroeste 7 Norte 0 -- -- 100
2020-03-22 06:00:00 11 0 Calma 7 Oeste 0 -- -- 98
2020-03-22 05:00:00 11.2 3 Noroeste 5 Oeste 0 -- -- 96
2020-03-22 04:00:00 11.3 2 Oeste 4 Norte 0 -- -- 95
2020-03-22 03:00:00 11.5 0 Calma 3 Sudoeste 0 -- -- 93
2020-03-22 02:00:00 11.7 0 Calma 4 Noroeste 0 -- -- 93
2020-03-22 01:00:00 12 0 Calma 4 Noroeste 0 -- -- 92
2020-03-22 00:00:00 12.3 0 Calma 4 Norte 0 -- -- 93
2020-03-21 23:00:00 12.4 0 Calma 5 Noroeste 0 -- -- 92
2020-03-21 22:00:00 12.8 0 Calma 4 Oeste 0 -- -- 90
2020-03-21 21:00:00 13 0 Calma 5 Nordeste 0 -- -- 86
2020-03-21 20:00:00 13.5 3 Nordeste 6 Nordeste 0 -- -- 81
2020-03-21 19:00:00 14.5 3 Sur 12 Este 0 -- -- 75
2020-03-21 18:00:00 15.8 5 Este 13 Este 0 -- -- 66
2020-03-21 17:00:00 17.2 5 Este 13 Nordeste 0 -- -- 59
2020-03-21 16:00:00 17.3 5 Norte 18 Este 0 -- -- 53
2020-03-21 15:00:00 16.9 6 Norte 15 Nordeste 0 -- -- 52
2020-03-21 14:00:00 15.8 5 Norte 15 Nordeste 0 -- -- 60
2020-03-21 13:00:00 15.6 6 Norte 13 Norte 0 -- -- 62
2020-03-21 12:00:00 13.2 3 Noroeste 6 Noroeste 0 -- -- 73
2020-03-21 11:00:00 10.7 0 Calma 4 Oeste 0 -- -- 77
2020-03-21 10:00:00 8.2 0 Calma 4 Sudoeste 0 -- -- 80
2020-03-21 09:00:00 7 0 Calma 5 Oeste 0 -- -- 85
2020-03-21 08:00:00 5.5 0 Calma 4 Sudoeste 0 -- -- 92
2020-03-21 07:00:00 4.7 0 Calma 4 Oeste 0 -- -- 94
2020-03-21 06:00:00 4.7 0 Calma 4 Oeste 0 -- -- 94
2020-03-21 05:00:00 4.9 2 Oeste 5 Sudoeste 0 -- -- 92
2020-03-21 04:00:00 5.4 2 Oeste 6 Noroeste 0 -- -- 91
2020-03-21 03:00:00 5.8 2 Oeste 4 Oeste 0 -- -- 94
2020-03-21 02:00:00 6.2 2 Oeste 5 Oeste 0 -- -- 92
2020-03-21 01:00:00 6.9 3 Noroeste 6 Oeste 0 -- -- 91
2020-03-21 00:00:00 7.9 2 Oeste 5 Oeste 0 -- -- 90
2020-03-20 23:00:00 8.9 0 Calma 4 Noroeste 0 -- -- 86
2020-03-20 22:00:00 10.2 0 Calma 5 Este 0 -- -- 80
2020-03-20 21:00:00 11.3 2 Sudeste 9 Sudoeste 0 -- -- 75
2020-03-20 20:00:00 12.7 3 Sur 10 Sur 0 -- -- 71
2020-03-20 19:00:00 14.6 4 Sudeste 17 Sudeste 0 -- -- 59
2020-03-20 18:00:00 16.3 9 Sudeste 22 Sur 0 -- -- 48
2020-03-20 17:00:00 18 10 Sudeste 19 Sudeste 0 -- -- 50
2020-03-20 16:00:00 19.9 7 Sur 16 Sudeste 0 -- -- 35
2020-03-20 15:00:00 19.5 8 Sur 20 Sur 0 -- -- 37
2020-03-20 14:00:00 18.8 6 Sur 14 Sur 0 -- -- 43
2020-03-20 13:00:00 18.1 4 Oeste 17 Sudoeste 0 -- -- 47
2020-03-20 12:00:00 17 6 Sur 14 Sur 0 -- -- 46
2020-03-20 11:00:00 13.7 2 Sudoeste 6 Sudoeste 0 -- -- 70
2020-03-20 10:00:00 9.9 2 Oeste 5 Noroeste 0 -- -- 81
2020-03-20 09:00:00 6.3 0 Calma 4 Este 0 -- -- 100
2020-03-20 08:00:00 4.9 0 Calma 3 Sudoeste 0 -- -- 100
2020-03-20 07:00:00 4.7 2 Oeste 5 Este 0 -- -- 100
2020-03-20 06:00:00 4.8 0 Calma 4 Sudoeste 0 -- -- 100
2020-03-20 05:00:00 5 0 Calma 2 Noroeste 0 -- -- 100
2020-03-20 04:00:00 5.8 0 Calma 4 Oeste 0 -- -- 100
2020-03-20 03:00:00 6.1 0 Calma 5 Sudeste 0 -- -- 100
2020-03-20 02:00:00 6.4 0 Calma 6 Sur 0 -- -- 94
2020-03-20 01:00:00 7.2 2 Este 6 Sudoeste 0 -- -- 94
2020-03-20 00:00:00 7.9 0 Calma 5 Este 0 -- -- 91
2020-03-19 23:00:00 9 2 Este 4 Sudoeste 0 -- -- 88
2020-03-19 22:00:00 9.8 2 Sudoeste 5 Sur 0 -- -- 87
2020-03-19 21:00:00 11.2 0 Calma 5 Sudeste 0 -- -- 81
2020-03-19 20:00:00 12.5 3 Sur 8 Sur 0 -- -- 73
2020-03-19 19:00:00 13.8 5 Sur 19 Sudeste 0 -- -- 64
2020-03-19 18:00:00 15.5 10 Sur 22 Sudeste 0 -- -- 57
2020-03-19 17:00:00 17.9 10 Sur 26 Sur 0 -- -- 55
2020-03-19 16:00:00 20.2 7 Sur 19 Sudeste 0 -- -- 52
2020-03-19 15:00:00 20.3 9 Sur 17 Sur 0 -- -- 55
2020-03-19 14:00:00 19.7 5 Nordeste 19 Norte 0 -- -- 46
2020-03-19 13:00:00 19 5 Norte 11 Norte 0 -- -- 45
2020-03-19 12:00:00 17.8 7 Norte 13 Norte 0 -- -- 47
2020-03-19 11:00:00 15.7 4 Noroeste 8 Norte 0 -- -- 63
2020-03-19 10:00:00 10.9 2 Noroeste 5 Oeste 0 -- -- 85
2020-03-19 09:00:00 7.4 2 Oeste 4 Sudoeste 0 -- -- 97
2020-03-19 08:00:00 5.4 0 Calma 6 Nordeste 0 -- -- 98
2020-03-19 07:00:00 5.3 0 Calma 4 Sur 0 -- -- 99
2020-03-19 06:00:00 5.7 0 Calma 2 Nordeste 0 -- -- 98
2020-03-19 05:00:00 6.2 0 Calma 3 Nordeste 0 -- -- 97
2020-03-19 04:00:00 6.6 0 Calma 3 Este 0 -- -- 98
2020-03-19 03:00:00 7.2 0 Calma 2 Oeste 0 -- -- 97
2020-03-19 02:00:00 7.9 0 Calma 3 Nordeste 0 -- -- 94
2020-03-19 01:00:00 8.3 0 Calma 2 Este 0 -- -- 94
2020-03-19 00:00:00 8.8 0 Calma 4 Sur 0 -- -- 90
2020-03-18 23:00:00 9.8 3 Este 5 Nordeste 0 -- -- 86
2020-03-18 22:00:00 10.9 0 Calma 4 Sudeste 0 -- -- 79
2020-03-18 21:00:00 11.9 0 Calma 4 Sur 0 -- -- 77
2020-03-18 20:00:00 13 0 Calma 6 Sudoeste 0 -- -- 73
2020-03-18 19:00:00 14.8 3 Sur 10 Sur 0 -- -- 60
2020-03-18 18:00:00 16.3 5 Sur 17 Sudeste 0 -- -- 56
2020-03-18 17:00:00 18.2 3 Norte 10 Noroeste 0 -- -- 57
2020-03-18 16:00:00 18.4 5 Norte 11 Norte 0 -- -- 56
2020-03-18 15:00:00 18.7 3 Norte 10 Este 0 -- -- 55
2020-03-18 14:00:00 19 3 Sudeste 10 Sur 0 -- -- 57
2020-03-18 13:00:00 17.9 4 Sur 8 Este 0 -- -- 56
2020-03-18 12:00:00 16.9 3 Este 8 Este 0 -- -- 61
2020-03-18 11:00:00 14.6 2 Sur 5 Sudoeste 0 -- -- 67
2020-03-18 10:00:00 11.8 2 Noroeste 4 Oeste 0 -- -- 81
2020-03-18 09:00:00 9.6 0 Calma 2 Sudoeste 0 -- -- 99
2020-03-18 08:00:00 8.2 0 Calma 3 Noroeste 0 -- -- 100
2020-03-18 07:00:00 7.8 0 Calma 3 Noroeste 0 -- -- 100
2020-03-18 06:00:00 8.1 0 Calma 4 Noroeste 0 -- -- 100
2020-03-18 05:00:00 8.3 0 Calma 2 Noroeste 0 -- -- 100
2020-03-18 04:00:00 8.6 0 Calma 3 Noroeste 0 -- -- 100
2020-03-18 03:00:00 8.9 2 Oeste 4 Sudoeste 0 -- -- 100
2020-03-18 02:00:00 9.2 0 Calma 4 Noroeste 0 -- -- 100
2020-03-18 01:00:00 9.8 0 Calma 4 Noroeste 0 -- -- 98
2020-03-18 00:00:00 10.5 2 Noroeste 4 Noroeste 0 -- -- 98
2020-03-17 23:00:00 11.5 2 Noroeste 6 Norte 0 -- -- 96
2020-03-17 22:00:00 11.7 4 Noroeste 9 Norte 0 -- -- 96
2020-03-17 21:00:00 12.2 4 Noroeste 7 Noroeste 0 -- -- 89
2020-03-17 20:00:00 12.7 2 Norte 8 Norte 0 -- -- 85
2020-03-17 19:00:00 13.8 0 Calma 6 Este 0 -- -- 79
2020-03-17 18:00:00 14.5 5 Norte 14 Nordeste 0 -- -- 76
2020-03-17 17:00:00 15.1 6 Norte 12 Norte 0 -- -- 72
2020-03-17 16:00:00 15.3 4 Norte 15 Norte 0 -- -- 73
2020-03-17 15:00:00 15.3 7 Norte 15 Nordeste 0 -- -- 74
2020-03-17 14:00:00 15.1 5 Nordeste 13 Norte 0 -- -- 78
2020-03-17 13:00:00 14.2 5 Norte 15 Norte 0 -- -- 84
2020-03-17 12:00:00 13.9 7 Norte 17 Norte 0 -- -- 86
2020-03-17 11:00:00 13.2 6 Norte 15 Norte 0 -- -- 88
2020-03-17 10:00:00 12.7 5 Norte 14 Norte 0 -- -- 88
2020-03-17 09:00:00 12.5 5 Norte 15 Norte 0 -- -- 87
2020-03-17 08:00:00 12.1 6 Norte 14 Norte 0 -- -- 90
2020-03-17 07:00:00 11.8 4 Norte 13 Norte 0 -- -- 91
2020-03-17 06:00:00 12.2 5 Norte 12 Norte 0 -- -- 88
2020-03-17 05:00:00 12.2 3 Norte 10 Norte 0 -- -- 88
2020-03-17 04:00:00 12 3 Norte 11 Norte 0 -- -- 90
2020-03-17 03:00:00 12 4 Norte 14 Norte 0 -- -- 92
2020-03-17 02:00:00 11.9 5 Norte 13 Noroeste 0 -- -- 94
2020-03-17 01:00:00 11.8 4 Norte 13 Norte 0 -- -- 95
2020-03-17 00:00:00 11.9 3 Noroeste 12 Noroeste 0 -- -- 97
2020-03-16 23:00:00 12 4 Norte 17 Norte 0 -- -- 95
2020-03-16 22:00:00 12 5 Norte 18 Noroeste 0 -- -- 97
2020-03-16 21:00:00 12.1 8 Norte 17 Norte 0.2 -- -- 99
2020-03-16 20:00:00 12.3 5 Norte 11 Norte 2.8 -- -- 99
2020-03-16 19:00:00 12.3 5 Norte 16 Norte 2.6 -- -- 100
2020-03-16 18:00:00 12.3 5 Nordeste 23 Norte 1 -- -- 98
2020-03-16 17:00:00 12.3 6 Norte 18 Norte 2 -- -- 99
2020-03-16 16:00:00 12.1 0 Calma 18 Norte 8.2 -- -- 99
2020-03-16 15:00:00 12.4 6 Nordeste 22 Este 3 -- -- 91
2020-03-16 14:00:00 13 6 Nordeste 18 Sudeste 2.2 -- -- 91
2020-03-16 13:00:00 13.4 5 Este 19 Sudeste 2.4 -- -- 90
2020-03-16 12:00:00 13.6 4 Norte 11 Norte 0.8 -- -- 90
2020-03-16 11:00:00 13.9 3 Norte 11 Norte 0 -- -- 81
2020-03-16 10:00:00 13.5 6 Norte 13 Norte 0 -- -- 82
2020-03-16 09:00:00 12.9 5 Norte 10 Noroeste 0 -- -- 86
2020-03-16 08:00:00 12.4 5 Norte 10 Norte 0 -- -- 87
2020-03-16 07:00:00 12.1 3 Norte 10 Norte 0 -- -- 87
2020-03-16 06:00:00 12.1 3 Norte 7 Norte 0 -- -- 83
2020-03-16 05:00:00 12.1 0 Calma 5 Nordeste 0 -- -- 79
2020-03-16 04:00:00 12.5 0 Calma 6 Sudeste 0 -- -- 79
2020-03-16 03:00:00 12.8 3 Sudeste 9 Sudeste 0 -- -- 82
2020-03-16 02:00:00 12.9 4 Sudeste 10 Este 0 -- -- 83
2020-03-16 01:00:00 12.9 4 Sudeste 10 Sur 0 -- -- 82
2020-03-16 00:00:00 13 6 Sudeste 21 Sudeste 0 -- -- 80
2020-03-15 23:00:00 13.1 6 Sudeste 12 Sudeste 0 -- -- 83
2020-03-15 22:00:00 13 5 Sudeste 17 Sur 0 -- -- 80
2020-03-15 21:00:00 13.3 7 Sudeste 20 Sudeste 0 -- -- 79
2020-03-15 20:00:00 13.6 11 Sudeste 24 Sudeste 0 -- -- 78
2020-03-15 19:00:00 14.3 9 Sudeste 29 Sur 0 -- -- 76
2020-03-15 18:00:00 15.3 13 Sudeste 33 Sur 0 -- -- 72
2020-03-15 17:00:00 17.3 13 Sudeste 36 Sur 0 -- -- 65
2020-03-15 16:00:00 17.8 17 Sur 40 Sudeste 0 -- -- 63
2020-03-15 15:00:00 18.3 17 Sudeste 40 Sur 0 -- -- 60
2020-03-15 14:00:00 18.9 16 Sudeste 32 Sudeste 0 -- -- 57
2020-03-15 13:00:00 18.7 12 Sur 35 Sudeste 0 -- -- 56
2020-03-15 12:00:00 17.7 11 Sur 26 Sudeste 0 -- -- 60
2020-03-15 11:00:00 16.5 11 Sudeste 23 Sudeste 0 -- -- 63
2020-03-15 10:00:00 14.1 7 Sur 13 Sudoeste 0 -- -- 76
2020-03-15 09:00:00 11.4 4 Sudeste 9 Sudeste 0 -- -- 84
2020-03-15 08:00:00 10.5 4 Sudoeste 7 Sudoeste 0 -- -- 82
2020-03-15 07:00:00 10.4 3 Sur 7 Sudeste 0 -- -- 80
2020-03-15 06:00:00 10.3 3 Sur 7 Sudoeste 0 -- -- 78
2020-03-15 05:00:00 9.9 2 Sur 5 Sur 0 -- -- 82
2020-03-15 04:00:00 9.9 2 Sudeste 6 Sudeste 0 -- -- 81
2020-03-15 03:00:00 10.2 0 Calma 2 Noroeste 0 -- -- 79
2020-03-15 02:00:00 11 0 Calma 6 Oeste 0 -- -- 73
2020-03-15 01:00:00 11.3 0 Calma 6 Norte 0 -- -- 72
2020-03-15 00:00:00 11.7 2 Oeste 9 Noroeste 0 -- -- 69
2020-03-14 23:00:00 12 4 Norte 9 Norte 0 -- -- 66
2020-03-14 22:00:00 12.4 2 Noroeste 6 Sudoeste 0 -- -- 85
2020-03-14 21:00:00 13.1 4 Sudoeste 9 Sur 0 -- -- 83
2020-03-14 20:00:00 13.5 4 Sur 12 Sur 0 -- -- 80
2020-03-14 19:00:00 13.8 6 Sur 13 Sur 0 -- -- 77
2020-03-14 18:00:00 14.3 6 Sur 19 Sudeste 0 -- -- 74
2020-03-14 17:00:00 15.1 9 Sur 18 Sudeste 0 -- -- 72
2020-03-14 16:00:00 16.3 10 Sur 22 Sudeste 0 -- -- 67
2020-03-14 15:00:00 17.1 8 Sur 18 Sur 0 -- -- 66
2020-03-14 14:00:00 17.4 7 Sur 14 Sur 0 -- -- 67
2020-03-14 13:00:00 17.6 6 Sudeste 14 Sudeste 0 -- -- 60
2020-03-14 12:00:00 17.4 6 Sur 12 Sur 0 -- -- 59
2020-03-14 11:00:00 15.1 3 Noroeste 10 Norte 0 -- -- 61
2020-03-14 10:00:00 14 3 Nordeste 9 Nordeste 0 -- -- 63
2020-03-14 09:00:00 12.5 4 Norte 17 Norte 0 -- -- 67
2020-03-14 08:00:00 12 5 Noroeste 9 Noroeste 0 -- -- 74
2020-03-14 07:00:00 12 0 Calma 12 Norte 0 -- -- 76
2020-03-14 06:00:00 12 0 Calma 5 Noroeste 0 -- -- 89
2020-03-14 05:00:00 11.8 0 Calma 5 Oeste 0 -- -- 88
2020-03-14 04:00:00 11.6 0 Calma 5 Nordeste 0 -- -- 91
2020-03-14 03:00:00 12.3 2 Oeste 6 Noroeste 0 -- -- 86
2020-03-14 02:00:00 12.6 2 Sur 6 Noroeste 0 -- -- 86
2020-03-14 01:00:00 13 3 Sudoeste 6 Sudoeste 0 -- -- 87
2020-03-14 00:00:00 13.1 3 Sur 8 Sudeste 0 -- -- 88
2020-03-13 23:00:00 13.3 4 Sudeste 6 Sur 0 -- -- 87
2020-03-13 22:00:00 13.9 4 Sudeste 9 Sudeste 0 -- -- 82
2020-03-13 21:00:00 14.8 4 Sudeste 9 Sur 0 -- -- 74
2020-03-13 20:00:00 15.5 4 Sur 11 Sur 0 -- -- 70
2020-03-13 19:00:00 16.8 4 Sur 9 Sudoeste 0 -- -- 62
2020-03-13 18:00:00 17.5 3 Nordeste 14 Norte 0 -- -- 54
2020-03-13 17:00:00 19.1 4 Nordeste 18 Nordeste 0 -- -- 49
2020-03-13 16:00:00 19 8 Nordeste 17 Nordeste 0 -- -- 51
2020-03-13 15:00:00 20 5 Norte 11 Norte 0 -- -- 52
2020-03-13 14:00:00 20.2 3 Sur 12 Norte 0 -- -- 56
2020-03-13 13:00:00 17.8 4 Noroeste 19 Norte 0 -- -- 63
2020-03-13 12:00:00 16.5 5 Noroeste 18 Noroeste 0 -- -- 65
2020-03-13 11:00:00 16.4 10 Nordeste 19 Noroeste 0 -- -- 60
2020-03-13 10:00:00 14 5 Norte 17 Norte 0 -- -- 67
2020-03-13 09:00:00 12.8 10 Norte 19 Norte 0 -- -- 73
2020-03-13 08:00:00 10.5 2 Oeste 4 Norte 0 -- -- 95
2020-03-13 07:00:00 9.3 0 Calma 7 Noroeste 0 -- -- 95
2020-03-13 06:00:00 9.7 2 Oeste 6 Noroeste 0 -- -- 92
2020-03-13 05:00:00 10.1 0 Calma 5 Oeste 0 -- -- 91
2020-03-13 04:00:00 10.6 2 Oeste 11 Norte 0 -- -- 89
2020-03-13 03:00:00 10.5 0 Calma 4 Oeste 0 -- -- 89
2020-03-13 02:00:00 11 2 Noroeste 4 Noroeste 0 -- -- 87
2020-03-13 01:00:00 11.5 0 Calma 4 Nordeste 0 -- -- 84
2020-03-13 00:00:00 11.9 0 Calma 4 Noroeste 0 -- -- 82
2020-03-12 23:00:00 12.7 0 Calma 6 Noroeste 0 -- -- 84
2020-03-12 22:00:00 13.7 3 Noroeste 6 Norte 0 -- -- 73
2020-03-12 21:00:00 14.6 3 Nordeste 6 Sudoeste 0 -- -- 69
2020-03-12 20:00:00 15.8 2 Oeste 7 Sudoeste 0 -- -- 66
2020-03-12 19:00:00 17.2 2 Nordeste 11 Nordeste 0 -- -- 58
2020-03-12 18:00:00 18.9 8 Norte 13 Norte 0 -- -- 59
2020-03-12 17:00:00 20.7 6 Norte 14 Norte 0 -- -- 57
2020-03-12 16:00:00 21.2 7 Norte 16 Norte 0 -- -- 56
2020-03-12 15:00:00 23.8 5 Sur 19 Sudeste 0 -- -- 48
2020-03-12 14:00:00 23.6 11 Sudoeste 21 Sudoeste 0 -- -- 49
2020-03-12 13:00:00 23.1 4 Sudoeste 9 Sur 0 -- -- 51
2020-03-12 12:00:00 20.5 2 Oeste 6 Norte 0 -- -- 52
2020-03-12 11:00:00 17.1 2 Sur 7 Sudoeste 0 -- -- 63
2020-03-12 10:00:00 12.3 0 Calma 4 Sudeste 0 -- -- 78
2020-03-12 09:00:00 8.9 0 Calma 3 Sudoeste 0 -- -- 95
2020-03-12 08:00:00 7.4 0 Calma 4 Nordeste 0 -- -- 97
2020-03-12 07:00:00 7.2 2 Este 6 Nordeste 0 -- -- 98
2020-03-12 06:00:00 7.6 2 Nordeste 4 Este 0 -- -- 100
2020-03-12 05:00:00 8 0 Calma 2 Este 0 -- -- 100
2020-03-12 04:00:00 8.1 0 Calma 5 Nordeste 0 -- -- 95
2020-03-12 03:00:00 8.9 4 Sudoeste 6 Sudoeste 0 -- -- 95
2020-03-12 02:00:00 9.6 0 Calma 5 Nordeste 0 -- -- 94
2020-03-12 01:00:00 10.1 0 Calma 5 Sudoeste 0 -- -- 93
2020-03-12 00:00:00 10.8 0 Calma 5 Sudeste 0 -- -- 87
2020-03-11 23:00:00 11.6 0 Calma 7 Sudeste 0 -- -- 84
2020-03-11 22:00:00 12.4 0 Calma 6 Sur 0 -- -- 80
2020-03-11 21:00:00 13.7 4 Sudeste 9 Sudeste 0 -- -- 78
2020-03-11 20:00:00 14.7 4 Sur 9 Sudeste 0 -- -- 73
2020-03-11 19:00:00 16.7 5 Sudeste 13 Sur 0 -- -- 69
2020-03-11 18:00:00 19.2 6 Sur 14 Sudoeste 0 -- -- 59
2020-03-11 17:00:00 22.1 8 Sur 18 Sudoeste 0 -- -- 46
2020-03-11 16:00:00 23.3 8 Sur 16 Sudoeste 0 -- -- 43
2020-03-11 15:00:00 23.1 8 Sur 18 Sur 0 -- -- 44
2020-03-11 14:00:00 22.5 5 Sur 14 Sudoeste 0 -- -- 44
2020-03-11 13:00:00 20.8 6 Sur 14 Sudoeste 0 -- -- 47
2020-03-11 12:00:00 19.3 5 Sur 13 Sur 0 -- -- 52
2020-03-11 11:00:00 16.5 5 Sur 9 Sudeste 0 -- -- 59
2020-03-11 10:00:00 11.9 2 Sudoeste 4 Sudoeste 0 -- -- 76
2020-03-11 09:00:00 8.3 0 Calma 5 Oeste 0 -- -- 91
2020-03-11 08:00:00 6.5 0 Calma 5 Este 0 -- -- 96
2020-03-11 07:00:00 6.4 2 Nordeste 8 Sudoeste 0 -- -- 95
2020-03-11 06:00:00 6.6 0 Calma 8 Nordeste 0 -- -- 94
2020-03-11 05:00:00 7 0 Calma 3 Noroeste 0 -- -- 96
2020-03-11 04:00:00 7.3 2 Oeste 4 Noroeste 0 -- -- 94
2020-03-11 03:00:00 7.8 0 Calma 5 Noroeste 0 -- -- 91
2020-03-11 02:00:00 8.4 2 Oeste 6 Noroeste 0 -- -- 88
2020-03-11 01:00:00 9.1 3 Nordeste 6 Este 0 -- -- 83
2020-03-11 00:00:00 9.6 0 Calma 3 Nordeste 0 -- -- 83
2020-03-10 23:00:00 10.4 2 Nordeste 4 Este 0 -- -- 78
2020-03-10 22:00:00 11 0 Calma 6 Sudeste 0 -- -- 76
2020-03-10 21:00:00 12.1 3 Este 7 Sudoeste 0 -- -- 73
2020-03-10 20:00:00 13.1 2 Sudoeste 6 Sudoeste 0 -- -- 68
2020-03-10 19:00:00 14.7 4 Sudeste 10 Sur 0 -- -- 60
2020-03-10 18:00:00 16.1 6 Sur 11 Sudeste 0 -- -- 57
2020-03-10 17:00:00 17.3 5 Sudeste 14 Sur 0 -- -- 53
2020-03-10 16:00:00 18.8 5 Norte 12 Nordeste 0 -- -- 53
2020-03-10 15:00:00 19.2 4 Sur 12 Sur 0 -- -- 44
2020-03-10 14:00:00 18.5 5 Sur 12 Sur 0 -- -- 47
2020-03-10 13:00:00 16.9 6 Sudoeste 14 Sudoeste 0 -- -- 51
2020-03-10 12:00:00 16.2 6 Sur 18 Sudeste 0 -- -- 51
2020-03-10 11:00:00 13.2 6 Sur 12 Sudeste 0 -- -- 62
2020-03-10 10:00:00 9.7 4 Sudeste 9 Sudeste 0 -- -- 79
2020-03-10 09:00:00 7.3 5 Sur 10 Sudeste 0 -- -- 87
2020-03-10 08:00:00 6.5 2 Oeste 5 Noroeste 0 -- -- 92
2020-03-10 07:00:00 5.9 2 Este 6 Nordeste 0 -- -- 92
2020-03-10 06:00:00 5.7 0 Calma 5 Sudoeste 0 -- -- 92
2020-03-10 05:00:00 5.6 2 Oeste 5 Norte 0 -- -- 91
2020-03-10 04:00:00 5.9 3 Nordeste 7 Sur 0 -- -- 87
2020-03-10 03:00:00 6.3 0 Calma 6 Norte 0 -- -- 87
2020-03-10 02:00:00 6.9 2 Oeste 7 Noroeste 0 -- -- 85
2020-03-10 01:00:00 7.3 0 Calma 5 Oeste 0 -- -- 87
2020-03-10 00:00:00 8.1 2 Noroeste 5 Noroeste 0 -- -- 83
2020-03-09 23:00:00 9.3 0 Calma 6 Noroeste 0 -- -- 75
2020-03-09 22:00:00 10.4 0 Calma 8 Nordeste 0 -- -- 60
2020-03-09 21:00:00 11.7 3 Sur 9 Nordeste 0 -- -- 55
2020-03-09 20:00:00 12.5 3 Sudeste 10 Sudeste 0 -- -- 52
2020-03-09 19:00:00 13.4 6 Sur 13 Sudoeste 0 -- -- 63
2020-03-09 18:00:00 14.3 5 Sur 21 Sur 0 -- -- 61
2020-03-09 17:00:00 15.2 10 Sur 24 Sur 0 -- -- 58
2020-03-09 16:00:00 16.1 9 Sur 25 Sudeste 0 -- -- 61
2020-03-09 15:00:00 17 12 Sur 24 Sur 0 -- -- 54
2020-03-09 14:00:00 15.6 5 Nordeste 13 Sudeste 0 -- -- 46
2020-03-09 13:00:00 16.1 6 Nordeste 16 Nordeste 0 -- -- 46
2020-03-09 12:00:00 15 5 Este 14 Sur 0 -- -- 62
2020-03-09 11:00:00 14.4 4 Este 9 Este 0 -- -- 65
2020-03-09 10:00:00 11.8 3 Noroeste 9 Norte 0 -- -- 70
2020-03-09 09:00:00 10.5 0 Calma 10 Nordeste 0 -- -- 78
2020-03-09 08:00:00 9.4 3 Nordeste 10 Sur 0 -- -- 93
2020-03-09 07:00:00 9.2 3 Noroeste 8 Norte 0 -- -- 94
2020-03-09 06:00:00 9 3 Sudeste 8 Sur 0 -- -- 92
2020-03-09 05:00:00 8.7 3 Noroeste 10 Norte 0 -- -- 91
2020-03-09 04:00:00 8.3 0 Calma 4 Noroeste 0 -- -- 92
2020-03-09 03:00:00 7.9 0 Calma 5 Oeste 0 -- -- 93
2020-03-09 02:00:00 7.7 2 Noroeste 4 Oeste 0 -- -- 93
2020-03-09 01:00:00 8.3 3 Nordeste 5 Nordeste 0 -- -- 89
2020-03-09 00:00:00 9.2 0 Calma 3 Este 0 -- -- 87
2020-03-08 23:00:00 10.1 3 Sur 5 Sudoeste 0 -- -- 83
2020-03-08 22:00:00 11.1 2 Oeste 5 Noroeste 0 -- -- 77
2020-03-08 21:00:00 11.9 0 Calma 7 Sudeste 0 -- -- 73
2020-03-08 20:00:00 12.5 3 Sur 9 Sudeste 0 -- -- 71
2020-03-08 19:00:00 13.1 4 Sur 17 Sudeste 0 -- -- 71
2020-03-08 18:00:00 14.2 7 Sur 18 Sur 0 -- -- 66
2020-03-08 17:00:00 16.2 7 Sur 19 Sudoeste 0 -- -- 59
2020-03-08 16:00:00 17.7 9 Sur 19 Sudeste 0 -- -- 55
2020-03-08 15:00:00 19 10 Sur 21 Sur 0 -- -- 50
2020-03-08 14:00:00 19 8 Sur 17 Sudeste 0 -- -- 48
2020-03-08 13:00:00 17.8 7 Sur 17 Sudeste 0 -- -- 50
2020-03-08 12:00:00 16.3 6 Sudeste 17 Sudeste 0 -- -- 54
2020-03-08 11:00:00 12.6 0 Calma 8 Sudoeste 0 -- -- 58
2020-03-08 10:00:00 8.1 0 Calma 4 Oeste 0 -- -- 74
2020-03-08 09:00:00 4.8 0 Calma 5 Este 0 -- -- 87
2020-03-08 08:00:00 3.3 0 Calma 4 Oeste 0 -- -- 92
2020-03-08 07:00:00 3.2 0 Calma 5 Noroeste 0 -- -- 89
2020-03-08 06:00:00 4 0 Calma 4 Sudeste 0 -- -- 87
2020-03-08 05:00:00 4 0 Calma 6 Norte 0 -- -- 88
2020-03-08 04:00:00 3.9 0 Calma 6 Nordeste 0 -- -- 87
2020-03-08 03:00:00 4.6 4 Este 10 Este 0 -- -- 85
2020-03-08 02:00:00 5.2 0 Calma 5 Nordeste 0 -- -- 83
2020-03-08 01:00:00 5.5 0 Calma 4 Oeste 0 -- -- 80
2020-03-08 00:00:00 6.2 2 Noroeste 6 Noroeste 0 -- -- 76
2020-03-07 23:00:00 7.5 2 Sudoeste 5 Noroeste 0 -- -- 74
2020-03-07 22:00:00 8.4 2 Nordeste 8 Sudeste 0 -- -- 68
2020-03-07 21:00:00 9.5 2 Este 8 Sur 0 -- -- 64
2020-03-07 20:00:00 10.6 3 Sudoeste 8 Sudoeste 0 -- -- 60
2020-03-07 19:00:00 12.4 4 Sur 15 Sur 0 -- -- 52
2020-03-07 18:00:00 14.2 8 Sur 23 Sudeste 0 -- -- 46
2020-03-07 17:00:00 16 9 Sur 26 Sur 0 -- -- 39
2020-03-07 16:00:00 16.9 9 Sur 27 Sur 0 -- -- 39
2020-03-07 15:00:00 16.8 9 Sur 25 Sudeste 0 -- -- 41
2020-03-07 14:00:00 16.3 12 Sur 26 Sudeste 0 -- -- 39
2020-03-07 13:00:00 16.5 12 Sur 28 Sudeste 0 -- -- 41
2020-03-07 12:00:00 15.5 6 Sur 22 Norte 0 -- -- 38
2020-03-07 11:00:00 12.6 12 Norte 24 Norte 0 -- -- 40
2020-03-07 10:00:00 7.5 4 Sudeste 10 Sudeste 0 -- -- 69
2020-03-07 09:00:00 3.8 3 Sudoeste 10 Sudoeste 0 -- -- 86
2020-03-07 08:00:00 2.9 3 Sudoeste 11 Norte 0 -- -- 92
2020-03-07 07:00:00 2.5 4 Sudeste 10 Sudeste 0 -- -- 92
2020-03-07 06:00:00 3 3 Nordeste 5 Nordeste 0 -- -- 92
2020-03-07 05:00:00 3.3 2 Noroeste 12 Sudoeste 0 -- -- 91
2020-03-07 04:00:00 3.7 5 Sudoeste 12 Sur 0 -- -- 96
2020-03-07 03:00:00 3.8 4 Sur 12 Sudoeste 0 -- -- 96
2020-03-07 02:00:00 4.6 3 Noroeste 6 Norte 0 -- -- 97
2020-03-07 01:00:00 4.9 2 Oeste 5 Noroeste 0 -- -- 95
2020-03-07 00:00:00 5.3 3 Oeste 5 Oeste 0 -- -- 95
2020-03-06 23:00:00 6.2 0 Calma 5 Oeste 0 -- -- 94
2020-03-06 22:00:00 7.2 3 Noroeste 8 Oeste 0 -- -- 90
2020-03-06 21:00:00 8.4 3 Norte 10 Noroeste 0 -- -- 87
2020-03-06 20:00:00 9 3 Este 6 Este 0 -- -- 88
2020-03-06 19:00:00 9.8 0 Calma 14 Sudoeste 0 -- -- 85
2020-03-06 18:00:00 10.9 6 Sur 12 Sudoeste 0.2 -- -- 82
2020-03-06 17:00:00 11 4 Sur 11 Sudeste 0.4 -- -- 80
2020-03-06 16:00:00 11.5 4 Este 20 Nordeste 0.6 -- -- 71
2020-03-06 15:00:00 12.8 5 Este 24 Este 0 -- -- 65
2020-03-06 14:00:00 15.5 6 Nordeste 18 Norte 0 -- -- 51
2020-03-06 13:00:00 15 8 Norte 16 Norte 0 -- -- 41
2020-03-06 12:00:00 14.7 3 Oeste 12 Noroeste 0 -- -- 38
2020-03-06 11:00:00 12.9 2 Noroeste 10 Sur 0 -- -- 52
2020-03-06 10:00:00 11.7 4 Sudeste 9 Sur 0 -- -- 55
2020-03-06 09:00:00 8.7 4 Sur 12 Sur 0 -- -- 72
2020-03-06 08:00:00 7 4 Este 7 Este 0 -- -- 83
2020-03-06 07:00:00 6.7 3 Sur 8 Sudeste 0 -- -- 87
2020-03-06 06:00:00 7.2 0 Calma 4 Nordeste 0 -- -- 90
2020-03-06 05:00:00 7 0 Calma 5 Noroeste 0 -- -- 93
2020-03-06 04:00:00 7.5 0 Calma 4 Sudoeste 0 -- -- 91
2020-03-06 03:00:00 7.3 0 Calma 6 Oeste 0 -- -- 91
2020-03-06 02:00:00 7.3 2 Oeste 6 Norte 0 -- -- 89
2020-03-06 01:00:00 8 0 Calma 4 Oeste 0 -- -- 86
2020-03-06 00:00:00 9.1 0 Calma 4 Nordeste 0 -- -- 80
2020-03-05 23:00:00 10.1 2 Sudeste 5 Nordeste 0 -- -- 75
2020-03-05 22:00:00 10.9 0 Calma 6 Nordeste 0 -- -- 72
2020-03-05 21:00:00 11.7 2 Noroeste 9 Sudoeste 0 -- -- 68
2020-03-05 20:00:00 13.3 4 Oeste 15 Nordeste 0 -- -- 61
2020-03-05 19:00:00 13.9 7 Norte 15 Norte 0 -- -- 58
2020-03-05 18:00:00 14.5 8 Norte 17 Este 0 -- -- 57
2020-03-05 17:00:00 16.3 7 Norte 29 Nordeste 0 -- -- 55
2020-03-05 16:00:00 22.4 7 Noroeste 28 Oeste 0 -- -- 43
2020-03-05 15:00:00 21.4 11 Oeste 27 Oeste 0 -- -- 43
2020-03-05 14:00:00 23 15 Oeste 33 Sudoeste 0 -- -- 39
2020-03-05 13:00:00 23.2 9 Oeste 32 Sudoeste 0 -- -- 41
2020-03-05 12:00:00 20.9 14 Sur 26 Sur 0 -- -- 47
2020-03-05 11:00:00 17.4 8 Sur 20 Sudeste 0 -- -- 61
2020-03-05 10:00:00 13.3 8 Sudeste 19 Sur 0 -- -- 80
2020-03-05 09:00:00 9.9 4 Sur 12 Sudeste 0 -- -- 96
2020-03-05 08:00:00 8.9 3 Sudoeste 9 Sur 0 -- -- 95
2020-03-05 07:00:00 8.8 5 Sur 10 Sudeste 0 -- -- 98
2020-03-05 06:00:00 7.9 4 Sur 8 Sur 0 -- -- 98
2020-03-05 05:00:00 7.7 3 Oeste 8 Sudeste 0 -- -- 97
2020-03-05 04:00:00 8.1 2 Sudoeste 6 Sur 0 -- -- 97
2020-03-05 03:00:00 7.9 0 Calma 6 Norte 0 -- -- 96
2020-03-05 02:00:00 8.3 3 Este 6 Nordeste 0 -- -- 94
2020-03-05 01:00:00 8.9 0 Calma 6 Sur 0 -- -- 93
2020-03-05 00:00:00 9.3 0 Calma 6 Sur 0 -- -- 91
2020-03-04 23:00:00 9.9 0 Calma 8 Sudoeste 0 -- -- 87
2020-03-04 22:00:00 10.9 2 Oeste 5 Nordeste 0 -- -- 85
2020-03-04 21:00:00 11.4 0 Calma 5 Oeste 0 -- -- 83
2020-03-04 20:00:00 12.3 3 Sudoeste 8 Sur 0 -- -- 78
2020-03-04 19:00:00 12.8 5 Sudeste 13 Sur 0 -- -- 75
2020-03-04 18:00:00 13.7 7 Sur 18 Sudeste 0 -- -- 70
2020-03-04 17:00:00 14.6 9 Sur 20 Sur 0 -- -- 66
2020-03-04 16:00:00 14.7 10 Sudeste 21 Sudeste 0 -- -- 64
2020-03-04 15:00:00 16.4 9 Sur 26 Sudeste 0 -- -- 58
2020-03-04 14:00:00 16.3 12 Sur 26 Sudeste 0 -- -- 59
2020-03-04 13:00:00 14.5 10 Sudeste 27 Sudeste 0 -- -- 64
2020-03-04 12:00:00 13.8 10 Sur 22 Sudeste 0 -- -- 67
2020-03-04 11:00:00 12.4 7 Sur 16 Sudeste 0 -- -- 67
2020-03-04 10:00:00 8.2 0 Calma 6 Nordeste 0 -- -- 76
2020-03-04 09:00:00 6 2 Oeste 4 Sur 0 -- -- 84
2020-03-04 08:00:00 3.9 0 Calma 4 Norte 0 -- -- 96
2020-03-04 07:00:00 3.4 0 Calma 4 Nordeste 0 -- -- 94
2020-03-04 06:00:00 3.6 0 Calma 5 Oeste 0 -- -- 94
2020-03-04 05:00:00 3.8 2 Noroeste 5 Oeste 0 -- -- 92
2020-03-04 04:00:00 4.8 0 Calma 4 Oeste 0 -- -- 90
2020-03-04 03:00:00 5.7 2 Oeste 12 Sudoeste 0 -- -- 85
2020-03-04 02:00:00 8.1 3 Oeste 17 Nordeste 0 -- -- 72
2020-03-04 01:00:00 8.9 3 Este 14 Noroeste 0 -- -- 69
2020-03-04 00:00:00 9.4 4 Oeste 31 Norte 0 -- -- 68
2020-03-03 23:00:00 9.3 8 Noroeste 18 Norte 0 -- -- 74
2020-03-03 22:00:00 8.5 5 Noroeste 17 Noroeste 0 -- -- 85
2020-03-03 21:00:00 8.7 7 Noroeste 21 Norte 0.4 -- -- 85
2020-03-03 20:00:00 9.5 12 Norte 28 Noroeste 0 -- -- 73
2020-03-03 19:00:00 10 6 Norte 18 Norte 0 -- -- 65
2020-03-03 18:00:00 12.9 8 Norte 14 Norte 0 -- -- 58
2020-03-03 17:00:00 14.4 6 Norte 24 Noroeste 0 -- -- 50
2020-03-03 16:00:00 16.3 8 Oeste 27 Sudoeste 0 -- -- 42
2020-03-03 15:00:00 15.2 8 Oeste 20 Oeste 0 -- -- 45
2020-03-03 14:00:00 15.5 6 Sur 17 Sudoeste 0 -- -- 42
2020-03-03 13:00:00 12.8 10 Sur 20 Sur 0 -- -- 47
2020-03-03 12:00:00 10.1 5 Sur 12 Sudeste 0 -- -- 51
2020-03-03 11:00:00 9.3 4 Sur 10 Sudeste 0 -- -- 56
2020-03-03 10:00:00 6.8 3 Sudeste 8 Este 0 -- -- 66
2020-03-03 09:00:00 4.9 3 Noroeste 7 Oeste 0 -- -- 76
2020-03-03 08:00:00 3.8 0 Calma 7 Sudeste 0 -- -- 80
2020-03-03 07:00:00 3.7 2 Nordeste 5 Norte 0 -- -- 78
2020-03-03 06:00:00 4.5 2 Este 9 Sudeste 0 -- -- 73
2020-03-03 05:00:00 4 2 Nordeste 9 Nordeste 0 -- -- 75
2020-03-03 04:00:00 4.1 3 Este 11 Sudoeste 0 -- -- 77
2020-03-03 03:00:00 4 3 Nordeste 6 Este 0 -- -- 80
2020-03-03 02:00:00 4.5 0 Calma 5 Nordeste 0 -- -- 80
2020-03-03 01:00:00 5.4 3 Sudoeste 8 Este 0 -- -- 79
2020-03-03 00:00:00 6.4 3 Oeste 15 Sudoeste 0 -- -- 78
2020-03-02 23:00:00 7.2 6 Sudoeste 12 Sudoeste 0 -- -- 73
2020-03-02 22:00:00 8.5 3 Oeste 10 Sudoeste 0 -- -- 70
2020-03-02 21:00:00 9.9 3 Nordeste 6 Sudoeste 0 -- -- 63
2020-03-02 20:00:00 11.5 4 Noroeste 9 Norte 0 -- -- 66
2020-03-02 19:00:00 12.5 3 Norte 10 Este 0 -- -- 63
2020-03-02 18:00:00 13.6 4 Sudeste 14 Sur 0 -- -- 59
2020-03-02 17:00:00 14.3 5 Este 26 Sudeste 0 -- -- 56
2020-03-02 16:00:00 16.4 12 Sudeste 22 Sur 0 -- -- 53
2020-03-02 15:00:00 17.5 10 Sudeste 22 Sudeste 0 -- -- 52
2020-03-02 14:00:00 15.6 4 Sudeste 16 Este 0 -- -- 56
2020-03-02 13:00:00 14.7 4 Sudeste 32 Sudoeste 0.8 -- -- 59
2020-03-02 12:00:00 16.6 9 Oeste 28 Sudoeste 0 -- -- 52
2020-03-02 11:00:00 18 4 Norte 32 Noroeste 0 -- -- 53
2020-03-02 10:00:00 17.9 8 Sudoeste 47 Sudoeste 0 -- -- 50
2020-03-02 09:00:00 15.8 19 Sur 53 Sur 0 -- -- 69
2020-03-02 08:00:00 15.8 23 Sur 53 Sudoeste 0 -- -- 67
2020-03-02 07:00:00 14.7 19 Sur 37 Sur 0 -- -- 72
2020-03-02 06:00:00 13.2 16 Sudeste 35 Sudeste 0 -- -- 81
2020-03-02 05:00:00 14 12 Sur 31 Sudeste 0 -- -- 71
2020-03-02 04:00:00 14.5 13 Sur 26 Sur 0 -- -- 58
2020-03-02 03:00:00 10.5 0 Calma 4 Sudeste 0 -- -- 80
2020-03-02 02:00:00 10.6 0 Calma 4 Sudeste 0 -- -- 84
2020-03-02 01:00:00 11.2 0 Calma 5 Sur 0 -- -- 82
2020-03-02 00:00:00 11.7 3 Nordeste 5 Oeste 0 -- -- 79
2020-03-01 23:00:00 12 2 Noroeste 8 Norte 0 -- -- 78
2020-03-01 22:00:00 12.6 3 Norte 12 Norte 0 -- -- 75
2020-03-01 21:00:00 14.1 5 Norte 14 Nordeste 0 -- -- 66
2020-03-01 20:00:00 16.2 3 Nordeste 11 Sudoeste 0 -- -- 46
2020-03-01 19:00:00 18.2 4 Sur 19 Sudoeste 0 -- -- 39
2020-03-01 18:00:00 19.2 7 Sudoeste 34 Sudoeste 0 -- -- 36
2020-03-01 17:00:00 20.6 12 Sudoeste 32 Sur 0 -- -- 33
2020-03-01 16:00:00 21 10 Oeste 31 Sudoeste 0 -- -- 33
2020-03-01 15:00:00 20.6 14 Oeste 43 Sudoeste 0 -- -- 35
2020-03-01 14:00:00 21.1 9 Oeste 30 Oeste 0 -- -- 34
2020-03-01 13:00:00 20.1 9 Oeste 34 Sudoeste 0 -- -- 35
2020-03-01 12:00:00 18.6 8 Oeste 22 Sur 0 -- -- 41
2020-03-01 11:00:00 16.3 9 Sur 24 Sudeste 0 -- -- 57
2020-03-01 10:00:00 14 11 Sur 26 Este 0 -- -- 67
2020-03-01 09:00:00 10.9 3 Este 13 Sudeste 0 -- -- 83
2020-03-01 08:00:00 11 4 Sudeste 8 Sudeste 0 -- -- 79
2020-03-01 07:00:00 11.1 2 Sur 5 Sudoeste 0 -- -- 73
2020-03-01 06:00:00 11 0 Calma 4 Oeste 0 -- -- 71
2020-03-01 05:00:00 11.2 0 Calma 4 Este 0 -- -- 69
2020-03-01 04:00:00 11.3 3 Norte 6 Este 0 -- -- 69
2020-03-01 03:00:00 11.9 2 Norte 8 Nordeste 0 -- -- 61
2020-03-01 02:00:00 12.3 3 Norte 10 Norte 0 -- -- 62
2020-03-01 01:00:00 12.5 3 Norte 11 Norte 0 -- -- 63
2020-03-01 00:00:00 12.9 2 Norte 19 Norte 0 -- -- 63
2020-02-29 23:00:00 13.9 9 Norte 18 Noroeste 0 -- -- 66
2020-02-29 22:00:00 14.7 3 Norte 9 Norte 0 -- -- 71
2020-02-29 21:00:00 15.5 3 Noroeste 10 Norte 0 -- -- 65
2020-02-29 20:00:00 16.5 5 Norte 10 Noroeste 0 -- -- 58
2020-02-29 19:00:00 18 2 Nordeste 10 Nordeste 0 -- -- 44
2020-02-29 18:00:00 19.5 4 Este 22 Sudoeste 0 -- -- 39
2020-02-29 17:00:00 20.7 8 Sudoeste 33 Sudoeste 0 -- -- 35
2020-02-29 16:00:00 20.8 13 Sudoeste 39 Sudoeste 0 -- -- 45
2020-02-29 15:00:00 19.1 13 Sur 36 Sudoeste 0 -- -- 57
2020-02-29 14:00:00 19.1 12 Sur 33 Sudeste 0 -- -- 60
2020-02-29 13:00:00 19.3 14 Sur 36 Sur 0 -- -- 57
2020-02-29 12:00:00 17.7 14 Sur 33 Sur 0 -- -- 59
2020-02-29 11:00:00 16.2 13 Sur 41 Sur 0 -- -- 64
2020-02-29 10:00:00 14.5 15 Sur 37 Sudeste 0 -- -- 72
2020-02-29 09:00:00 13.2 12 Sur 24 Sur 0 -- -- 74
2020-02-29 08:00:00 12.5 13 Sur 32 Sudeste 0 -- -- 75
2020-02-29 07:00:00 11.8 10 Sur 30 Sur 0 -- -- 77
2020-02-29 06:00:00 11.4 7 Sudeste 24 Sudeste 0 -- -- 83
2020-02-29 05:00:00 11.3 8 Sudeste 26 Sudeste 0 -- -- 85
2020-02-29 04:00:00 11.4 7 Sur 17 Sur 0 -- -- 85
2020-02-29 03:00:00 11.1 5 Sur 16 Sur 0 -- -- 87
2020-02-29 02:00:00 10.9 4 Sur 19 Sur 0 -- -- 89
2020-02-29 01:00:00 10.8 5 Sur 16 Sudeste 0 -- -- 92
2020-02-29 00:00:00 10.7 6 Sur 15 Sur 0 -- -- 93
2020-02-28 23:00:00 10.8 3 Sudoeste 12 Sur 0 -- -- 88
2020-02-28 22:00:00 11.4 5 Sudeste 14 Sudeste 0 -- -- 87
2020-02-28 21:00:00 11.9 6 Sudeste 19 Sudeste 0 -- -- 85
2020-02-28 20:00:00 12.6 10 Sudeste 26 Sudeste 0 -- -- 82
2020-02-28 19:00:00 12.9 10 Sudeste 24 Sudeste 0 -- -- 80
2020-02-28 18:00:00 13.4 11 Sudeste 32 Sudeste 0 -- -- 78
2020-02-28 17:00:00 14.7 12 Sudeste 33 Sudeste 0 -- -- 72
2020-02-28 16:00:00 16.7 18 Sur 33 Sudeste 0 -- -- 65
2020-02-28 15:00:00 17.6 13 Sur 26 Sudeste 0 -- -- 63
2020-02-28 14:00:00 17.5 10 Sudeste 20 Sudeste 0 -- -- 62
2020-02-28 13:00:00 17.7 7 Sur 18 Sudeste 0 -- -- 58
2020-02-28 12:00:00 16.7 7 Sur 17 Sudoeste 0 -- -- 60
2020-02-28 11:00:00 14 0 Calma 9 Sudoeste 0 -- -- 68
2020-02-28 10:00:00 10.5 2 Sudoeste 6 Oeste 0 -- -- 80
2020-02-28 09:00:00 7.3 2 Oeste 5 Sudoeste 0 -- -- 93
2020-02-28 08:00:00 6 0 Calma 4 Oeste 0 -- -- 95
2020-02-28 07:00:00 6.1 0 Calma 4 Oeste 0 -- -- 93
2020-02-28 06:00:00 6.7 0 Calma 4 Oeste 0 -- -- 93
2020-02-28 05:00:00 7.1 2 Oeste 5 Norte 0 -- -- 88
2020-02-28 04:00:00 7.6 0 Calma 7 Norte 0 -- -- 87
2020-02-28 03:00:00 8.3 0 Calma 6 Este 0 -- -- 85
2020-02-28 02:00:00 8.7 2 Este 5 Sudoeste 0 -- -- 81
2020-02-28 01:00:00 9.1 0 Calma 5 Noroeste 0 -- -- 78
2020-02-28 00:00:00 10.2 0 Calma 4 Noroeste 0 -- -- 75